ARG1483 SASA-SAEZ
Flight info
| Callsign | ARG1483 |
|---|---|
| Flight time | 1h 44m |
| Altitude | 33000 |
| Route | VUL1 PONPI UT681 PUBER UL550 ROS DCT SNT |
| Aircraft | B738/M-SDE2E3FGHIRWXY/LB1 |
Departure
| Time | 2026-04-29 05:24 |
|---|---|
| Airport | Martín Miguel de Güemes International Airport (SASA) |
Arrival
| Time | 2026-04-29 07:09 |
|---|---|
| Airport | Ezeiza International Airport - Ministro Pistarini (SAEZ) |
| Time | Latitude | Longitude | Altitude | Speed | Heading |
|---|---|---|---|---|---|
| 2026-04-29 04:58 | -24.84474 | -65.47900 | 4016 ft | 0 kts | 22° |
| 2026-04-29 05:14 | -24.84478 | -65.47902 | 4016 ft | 2 kts | 22° |
| 2026-04-29 05:14 | -24.84494 | -65.47909 | 4016 ft | 2 kts | 17° |
| 2026-04-29 05:15 | -24.84508 | -65.47907 | 4017 ft | 2 kts | 311° |
| 2026-04-29 05:15 | -24.84516 | -65.47891 | 4016 ft | 2 kts | 285° |
| 2026-04-29 05:15 | -24.84520 | -65.47876 | 4016 ft | 1 kts | 289° |
| 2026-04-29 05:15 | -24.84521 | -65.47874 | 4016 ft | 0 kts | 290° |
| 2026-04-29 05:18 | -24.84519 | -65.47880 | 4016 ft | 2 kts | 291° |
| 2026-04-29 05:18 | -24.84507 | -65.47911 | 4016 ft | 7 kts | 291° |
| 2026-04-29 05:18 | -24.84505 | -65.47975 | 4016 ft | 10 kts | 258° |
| 2026-04-29 05:19 | -24.84529 | -65.48063 | 4016 ft | 14 kts | 252° |
| 2026-04-29 05:19 | -24.84562 | -65.48173 | 4016 ft | 16 kts | 252° |
| 2026-04-29 05:19 | -24.84601 | -65.48301 | 4016 ft | 19 kts | 245° |
| 2026-04-29 05:19 | -24.84694 | -65.48413 | 4016 ft | 21 kts | 221° |
| 2026-04-29 05:20 | -24.84829 | -65.48462 | 4017 ft | 20 kts | 191° |
| 2026-04-29 05:20 | -24.84966 | -65.48491 | 4017 ft | 20 kts | 191° |
| 2026-04-29 05:20 | -24.85110 | -65.48521 | 4016 ft | 22 kts | 191° |
| 2026-04-29 05:20 | -24.85273 | -65.48556 | 4016 ft | 26 kts | 191° |
| 2026-04-29 05:21 | -24.85461 | -65.48597 | 4017 ft | 29 kts | 191° |
| 2026-04-29 05:21 | -24.85666 | -65.48641 | 4017 ft | 32 kts | 191° |
| 2026-04-29 05:21 | -24.85891 | -65.48688 | 4018 ft | 34 kts | 191° |
| 2026-04-29 05:21 | -24.86128 | -65.48738 | 4017 ft | 36 kts | 191° |
| 2026-04-29 05:22 | -24.86382 | -65.48793 | 4012 ft | 38 kts | 191° |
| 2026-04-29 05:22 | -24.86650 | -65.48850 | 4009 ft | 40 kts | 191° |
| 2026-04-29 05:22 | -24.86875 | -65.48897 | 4011 ft | 22 kts | 186° |
| 2026-04-29 05:22 | -24.86982 | -65.48869 | 4007 ft | 17 kts | 161° |
| 2026-04-29 05:23 | -24.87115 | -65.48820 | 4017 ft | 23 kts | 162° |
| 2026-04-29 05:23 | -24.87281 | -65.48819 | 4017 ft | 27 kts | 224° |
| 2026-04-29 05:23 | -24.87259 | -65.48954 | 4018 ft | 21 kts | 331° |
| 2026-04-29 05:23 | -24.87068 | -65.48943 | 4017 ft | 49 kts | 9° |
| 2026-04-29 05:24 | -24.86474 | -65.48813 | 4014 ft | 122 kts | 11° |
| 2026-04-29 05:24 | -24.85426 | -65.48600 | 4045 ft | 180 kts | 7° |
| 2026-04-29 05:24 | -24.84114 | -65.48384 | 4625 ft | 196 kts | 8° |
| 2026-04-29 05:24 | -24.82723 | -65.48121 | 5342 ft | 211 kts | 11° |
| 2026-04-29 05:25 | -24.81233 | -65.47767 | 5869 ft | 227 kts | 13° |
| 2026-04-29 05:25 | -24.79684 | -65.47354 | 6516 ft | 228 kts | 13° |
| 2026-04-29 05:25 | -24.78115 | -65.46874 | 6860 ft | 242 kts | 25° |
| 2026-04-29 05:25 | -24.76741 | -65.45771 | 7313 ft | 250 kts | 48° |
| 2026-04-29 05:26 | -24.75760 | -65.44186 | 7741 ft | 263 kts | 63° |
| 2026-04-29 05:26 | -24.75414 | -65.42131 | 8027 ft | 281 kts | 99° |
| 2026-04-29 05:26 | -24.75853 | -65.40043 | 8733 ft | 286 kts | 104° |
| 2026-04-29 05:26 | -24.76384 | -65.37925 | 9490 ft | 289 kts | 114° |
| 2026-04-29 05:27 | -24.77616 | -65.36203 | 10202 ft | 291 kts | 146° |
| 2026-04-29 05:27 | -24.81744 | -65.35054 | 10741 ft | 332 kts | 174° |
| 2026-04-29 05:27 | -24.84117 | -65.34772 | 10912 ft | 354 kts | 174° |
| 2026-04-29 05:28 | -24.86635 | -65.34468 | 11090 ft | 373 kts | 174° |
| 2026-04-29 05:28 | -24.89255 | -65.34129 | 11533 ft | 383 kts | 173° |
| 2026-04-29 05:28 | -24.91894 | -65.33666 | 12226 ft | 384 kts | 170° |
| 2026-04-29 05:28 | -24.94528 | -65.33099 | 12935 ft | 386 kts | 169° |
| 2026-04-29 05:29 | -24.97163 | -65.32495 | 13583 ft | 389 kts | 168° |
| 2026-04-29 05:29 | -24.99830 | -65.31878 | 14157 ft | 393 kts | 168° |
| 2026-04-29 05:29 | -25.02523 | -65.31262 | 14733 ft | 397 kts | 168° |
| 2026-04-29 05:29 | -25.04318 | -65.30855 | 15119 ft | 399 kts | 169° |
| 2026-04-29 05:30 | -25.07947 | -65.30043 | 15894 ft | 403 kts | 169° |
| 2026-04-29 05:30 | -25.10711 | -65.29431 | 16460 ft | 406 kts | 169° |
| 2026-04-29 05:30 | -25.13497 | -65.28817 | 16991 ft | 410 kts | 169° |
| 2026-04-29 05:30 | -25.15393 | -65.28400 | 17336 ft | 412 kts | 169° |
| 2026-04-29 05:31 | -25.18217 | -65.27780 | 17835 ft | 415 kts | 169° |
| 2026-04-29 05:31 | -25.21025 | -65.27164 | 18324 ft | 418 kts | 169° |
| 2026-04-29 05:31 | -25.23889 | -65.26535 | 18810 ft | 421 kts | 169° |
| 2026-04-29 05:31 | -25.26774 | -65.25901 | 19288 ft | 424 kts | 169° |
| 2026-04-29 05:32 | -25.29679 | -65.25262 | 19750 ft | 427 kts | 169° |
| 2026-04-29 05:32 | -25.32605 | -65.24619 | 20222 ft | 430 kts | 169° |
| 2026-04-29 05:32 | -25.35546 | -65.23971 | 20670 ft | 433 kts | 169° |
| 2026-04-29 05:32 | -25.38510 | -65.23319 | 21095 ft | 435 kts | 169° |
| 2026-04-29 05:33 | -25.41489 | -65.22662 | 21506 ft | 438 kts | 169° |
| 2026-04-29 05:33 | -25.44495 | -65.22000 | 21905 ft | 441 kts | 169° |
| 2026-04-29 05:33 | -25.47513 | -65.21334 | 22290 ft | 443 kts | 169° |
| 2026-04-29 05:33 | -25.50554 | -65.20663 | 22668 ft | 446 kts | 169° |
| 2026-04-29 05:34 | -25.53608 | -65.19989 | 23031 ft | 448 kts | 169° |
| 2026-04-29 05:34 | -25.56644 | -65.19318 | 23378 ft | 451 kts | 169° |
| 2026-04-29 05:34 | -25.59727 | -65.18636 | 23724 ft | 453 kts | 169° |
| 2026-04-29 05:34 | -25.62823 | -65.17952 | 24057 ft | 455 kts | 169° |
| 2026-04-29 05:35 | -25.65947 | -65.17261 | 24383 ft | 458 kts | 169° |
| 2026-04-29 05:35 | -25.69077 | -65.16568 | 24698 ft | 460 kts | 169° |
| 2026-04-29 05:35 | -25.72225 | -65.15870 | 25003 ft | 462 kts | 169° |
| 2026-04-29 05:35 | -25.75387 | -65.15170 | 25302 ft | 464 kts | 169° |
| 2026-04-29 05:36 | -25.78559 | -65.14466 | 25588 ft | 466 kts | 169° |
| 2026-04-29 05:36 | -25.81746 | -65.13759 | 25859 ft | 468 kts | 169° |
| 2026-04-29 05:36 | -25.84952 | -65.13047 | 26126 ft | 470 kts | 169° |
| 2026-04-29 05:36 | -25.88162 | -65.12334 | 26386 ft | 472 kts | 169° |
| 2026-04-29 05:37 | -25.91391 | -65.11617 | 26635 ft | 474 kts | 169° |
| 2026-04-29 05:37 | -25.94633 | -65.10896 | 26875 ft | 475 kts | 169° |
| 2026-04-29 05:37 | -25.97882 | -65.10173 | 27118 ft | 477 kts | 169° |
| 2026-04-29 05:37 | -26.01111 | -65.09454 | 27421 ft | 477 kts | 169° |
| 2026-04-29 05:38 | -26.04358 | -65.08731 | 27789 ft | 475 kts | 169° |
| 2026-04-29 05:38 | -26.07598 | -65.08009 | 28153 ft | 474 kts | 169° |
| 2026-04-29 05:38 | -26.10833 | -65.07288 | 28488 ft | 473 kts | 169° |
| 2026-04-29 05:38 | -26.14068 | -65.06566 | 28798 ft | 473 kts | 169° |
| 2026-04-29 05:39 | -26.17291 | -65.05847 | 29114 ft | 473 kts | 169° |
| 2026-04-29 05:39 | -26.20513 | -65.05127 | 29451 ft | 472 kts | 169° |
| 2026-04-29 05:39 | -26.23694 | -65.04416 | 29783 ft | 471 kts | 169° |
| 2026-04-29 05:39 | -26.26903 | -65.03698 | 30099 ft | 470 kts | 169° |
| 2026-04-29 05:40 | -26.30112 | -65.02980 | 30421 ft | 470 kts | 169° |
| 2026-04-29 05:40 | -26.33311 | -65.02256 | 30740 ft | 469 kts | 167° |
| 2026-04-29 05:40 | -26.36433 | -65.01202 | 31036 ft | 469 kts | 160° |
| 2026-04-29 05:40 | -26.39466 | -64.99889 | 31349 ft | 468 kts | 158° |
| 2026-04-29 05:41 | -26.42478 | -64.98515 | 31637 ft | 467 kts | 158° |
| 2026-04-29 05:41 | -26.45492 | -64.97125 | 31918 ft | 467 kts | 158° |
| 2026-04-29 05:41 | -26.48492 | -64.95749 | 32212 ft | 466 kts | 158° |
| 2026-04-29 05:41 | -26.51507 | -64.94384 | 32501 ft | 465 kts | 158° |
| 2026-04-29 05:42 | -26.54515 | -64.93037 | 32773 ft | 465 kts | 158° |
| 2026-04-29 05:42 | -26.57481 | -64.91719 | 32999 ft | 465 kts | 159° |
| 2026-04-29 05:42 | -26.63554 | -64.89034 | 33007 ft | 472 kts | 159° |
| 2026-04-29 05:43 | -26.69698 | -64.86319 | 33011 ft | 477 kts | 159° |
| 2026-04-29 05:43 | -26.75883 | -64.83581 | 33005 ft | 479 kts | 159° |
| 2026-04-29 05:44 | -26.82092 | -64.80826 | 33001 ft | 479 kts | 159° |
| 2026-04-29 05:44 | -26.88262 | -64.78086 | 33000 ft | 479 kts | 159° |
| 2026-04-29 05:45 | -26.94461 | -64.75329 | 33001 ft | 479 kts | 159° |
| 2026-04-29 05:45 | -27.00656 | -64.72570 | 33000 ft | 478 kts | 159° |
| 2026-04-29 05:46 | -27.06833 | -64.69817 | 33002 ft | 477 kts | 159° |
| 2026-04-29 05:46 | -27.13003 | -64.67064 | 33002 ft | 476 kts | 159° |
| 2026-04-29 05:47 | -27.19160 | -64.64312 | 33001 ft | 476 kts | 159° |
| 2026-04-29 05:47 | -27.25275 | -64.61577 | 33002 ft | 476 kts | 159° |
| 2026-04-29 05:48 | -27.31429 | -64.58821 | 33002 ft | 476 kts | 159° |
| 2026-04-29 05:48 | -27.37578 | -64.56064 | 33001 ft | 475 kts | 158° |
| 2026-04-29 05:49 | -27.43729 | -64.53302 | 33001 ft | 475 kts | 158° |
| 2026-04-29 05:49 | -27.49872 | -64.50541 | 33001 ft | 475 kts | 158° |
| 2026-04-29 05:50 | -27.56029 | -64.47770 | 33002 ft | 475 kts | 158° |
| 2026-04-29 05:50 | -27.62170 | -64.45003 | 33001 ft | 475 kts | 158° |
| 2026-04-29 05:51 | -27.68274 | -64.42249 | 33001 ft | 475 kts | 158° |
| 2026-04-29 05:51 | -27.74417 | -64.39475 | 33001 ft | 475 kts | 158° |
| 2026-04-29 05:52 | -27.80558 | -64.36698 | 33002 ft | 475 kts | 158° |
| 2026-04-29 05:52 | -27.86705 | -64.33915 | 33002 ft | 475 kts | 158° |
| 2026-04-29 05:53 | -27.92848 | -64.31130 | 33001 ft | 475 kts | 158° |
| 2026-04-29 05:53 | -27.98991 | -64.28341 | 33002 ft | 475 kts | 158° |
| 2026-04-29 05:54 | -28.05137 | -64.25548 | 33001 ft | 475 kts | 158° |
| 2026-04-29 05:54 | -28.11275 | -64.22755 | 33001 ft | 476 kts | 158° |
| 2026-04-29 05:55 | -28.17415 | -64.19957 | 33001 ft | 476 kts | 158° |
| 2026-04-29 05:55 | -28.23553 | -64.17157 | 33002 ft | 476 kts | 158° |
| 2026-04-29 05:56 | -28.29450 | -64.13876 | 33013 ft | 475 kts | 149° |
| 2026-04-29 05:56 | -28.35109 | -64.09956 | 33001 ft | 476 kts | 148° |
| 2026-04-29 05:57 | -28.40733 | -64.06037 | 33001 ft | 476 kts | 149° |
| 2026-04-29 05:57 | -28.46400 | -64.02142 | 33001 ft | 476 kts | 149° |
| 2026-04-29 05:58 | -28.52084 | -63.98256 | 33001 ft | 476 kts | 149° |
| 2026-04-29 05:58 | -28.57760 | -63.94372 | 33001 ft | 476 kts | 149° |
| 2026-04-29 05:59 | -28.63435 | -63.90481 | 33003 ft | 476 kts | 149° |
| 2026-04-29 05:59 | -28.69112 | -63.86582 | 33001 ft | 476 kts | 149° |
| 2026-04-29 06:00 | -28.74781 | -63.82684 | 33001 ft | 476 kts | 149° |
| 2026-04-29 06:00 | -28.80417 | -63.78804 | 33001 ft | 476 kts | 149° |
| 2026-04-29 06:01 | -28.86081 | -63.74877 | 33001 ft | 476 kts | 149° |
| 2026-04-29 06:01 | -28.91736 | -63.70938 | 33001 ft | 476 kts | 149° |
| 2026-04-29 06:02 | -28.97388 | -63.66998 | 33002 ft | 476 kts | 149° |
| 2026-04-29 06:02 | -29.03044 | -63.63052 | 33001 ft | 476 kts | 149° |
| 2026-04-29 06:03 | -29.08700 | -63.59102 | 33002 ft | 476 kts | 149° |
| 2026-04-29 06:03 | -29.14352 | -63.55151 | 33002 ft | 476 kts | 149° |
| 2026-04-29 06:04 | -29.19966 | -63.51220 | 33002 ft | 476 kts | 149° |
| 2026-04-29 06:04 | -29.25621 | -63.47254 | 33002 ft | 476 kts | 149° |
| 2026-04-29 06:05 | -29.31267 | -63.43290 | 33001 ft | 476 kts | 149° |
| 2026-04-29 06:05 | -29.36910 | -63.39322 | 33001 ft | 476 kts | 149° |
| 2026-04-29 06:06 | -29.42558 | -63.35345 | 33001 ft | 476 kts | 149° |
| 2026-04-29 06:06 | -29.48207 | -63.31360 | 33003 ft | 476 kts | 148° |
| 2026-04-29 06:07 | -29.53817 | -63.27383 | 33001 ft | 476 kts | 148° |
| 2026-04-29 06:07 | -29.59450 | -63.23381 | 33002 ft | 476 kts | 148° |
| 2026-04-29 06:08 | -29.65093 | -63.19368 | 33001 ft | 476 kts | 148° |
| 2026-04-29 06:08 | -29.70723 | -63.15360 | 33001 ft | 476 kts | 148° |
| 2026-04-29 06:09 | -29.76363 | -63.11339 | 33002 ft | 476 kts | 148° |
| 2026-04-29 06:09 | -29.81958 | -63.07345 | 33001 ft | 476 kts | 148° |
| 2026-04-29 06:10 | -29.87588 | -63.03321 | 33002 ft | 476 kts | 148° |
| 2026-04-29 06:10 | -29.93225 | -62.99287 | 33003 ft | 476 kts | 148° |
| 2026-04-29 06:11 | -29.98847 | -62.95257 | 33001 ft | 476 kts | 148° |
| 2026-04-29 06:11 | -30.04474 | -62.91219 | 33001 ft | 476 kts | 148° |
| 2026-04-29 06:12 | -30.10100 | -62.87175 | 33001 ft | 476 kts | 148° |
| 2026-04-29 06:12 | -30.15694 | -62.83149 | 33001 ft | 476 kts | 148° |
| 2026-04-29 06:13 | -30.21322 | -62.79093 | 33001 ft | 476 kts | 148° |
| 2026-04-29 06:13 | -30.26946 | -62.75034 | 33003 ft | 476 kts | 148° |
| 2026-04-29 06:14 | -30.32566 | -62.70973 | 33001 ft | 476 kts | 148° |
| 2026-04-29 06:14 | -30.38154 | -62.66931 | 33001 ft | 476 kts | 148° |
| 2026-04-29 06:15 | -30.43783 | -62.62856 | 33001 ft | 476 kts | 148° |
| 2026-04-29 06:15 | -30.49397 | -62.58786 | 33001 ft | 476 kts | 148° |
| 2026-04-29 06:16 | -30.55013 | -62.54709 | 33001 ft | 476 kts | 148° |
| 2026-04-29 06:16 | -30.60630 | -62.50624 | 33002 ft | 476 kts | 148° |
| 2026-04-29 06:17 | -30.66240 | -62.46540 | 33001 ft | 476 kts | 148° |
| 2026-04-29 06:17 | -30.71855 | -62.42444 | 33001 ft | 476 kts | 148° |
| 2026-04-29 06:18 | -30.76521 | -62.39038 | 33001 ft | 476 kts | 148° |
| 2026-04-29 06:18 | -30.83051 | -62.34284 | 33001 ft | 476 kts | 148° |
| 2026-04-29 06:19 | -30.87761 | -62.30868 | 33001 ft | 476 kts | 148° |
| 2026-04-29 06:19 | -30.93385 | -62.26781 | 33001 ft | 476 kts | 148° |
| 2026-04-29 06:20 | -30.99000 | -62.22690 | 33001 ft | 476 kts | 148° |
| 2026-04-29 06:20 | -31.04578 | -62.18622 | 33001 ft | 476 kts | 148° |
| 2026-04-29 06:21 | -31.10198 | -62.14521 | 33001 ft | 476 kts | 148° |
| 2026-04-29 06:21 | -31.15816 | -62.10416 | 33001 ft | 476 kts | 148° |
| 2026-04-29 06:22 | -31.21424 | -62.06307 | 33001 ft | 476 kts | 148° |
| 2026-04-29 06:22 | -31.27028 | -62.02154 | 33001 ft | 476 kts | 148° |
| 2026-04-29 06:23 | -31.32619 | -61.97992 | 33002 ft | 476 kts | 148° |
| 2026-04-29 06:23 | -31.38178 | -61.93851 | 33002 ft | 476 kts | 148° |
| 2026-04-29 06:24 | -31.43767 | -61.89686 | 33002 ft | 476 kts | 148° |
| 2026-04-29 06:24 | -31.49359 | -61.85513 | 33001 ft | 476 kts | 148° |
| 2026-04-29 06:25 | -31.54950 | -61.81336 | 33001 ft | 476 kts | 148° |
| 2026-04-29 06:25 | -31.60506 | -61.77178 | 33001 ft | 476 kts | 148° |
| 2026-04-29 06:26 | -31.66093 | -61.72990 | 33002 ft | 476 kts | 148° |
| 2026-04-29 06:26 | -31.71564 | -61.68594 | 32995 ft | 476 kts | 140° |
| 2026-04-29 06:27 | -31.76500 | -61.63405 | 33001 ft | 476 kts | 137° |
| 2026-04-29 06:27 | -31.81381 | -61.58141 | 33000 ft | 476 kts | 138° |
| 2026-04-29 06:28 | -31.86293 | -61.52903 | 33002 ft | 476 kts | 138° |
| 2026-04-29 06:28 | -31.91193 | -61.47723 | 33001 ft | 477 kts | 138° |
| 2026-04-29 06:29 | -31.96141 | -61.42503 | 33003 ft | 477 kts | 138° |
| 2026-04-29 06:29 | -32.01084 | -61.37280 | 33002 ft | 477 kts | 138° |
| 2026-04-29 06:30 | -32.08481 | -61.29446 | 33001 ft | 477 kts | 138° |
| 2026-04-29 06:31 | -32.13409 | -61.24216 | 33001 ft | 477 kts | 138° |
| 2026-04-29 06:31 | -32.18333 | -61.18980 | 33003 ft | 477 kts | 138° |
| 2026-04-29 06:32 | -32.23259 | -61.13736 | 33002 ft | 477 kts | 138° |
| 2026-04-29 06:32 | -32.28151 | -61.08521 | 33002 ft | 477 kts | 138° |
| 2026-04-29 06:33 | -32.33073 | -61.03264 | 33001 ft | 477 kts | 138° |
| 2026-04-29 06:33 | -32.37994 | -60.98001 | 33002 ft | 477 kts | 138° |
| 2026-04-29 06:34 | -32.42912 | -60.92733 | 33001 ft | 477 kts | 138° |
| 2026-04-29 06:34 | -32.47829 | -60.87458 | 33002 ft | 477 kts | 138° |
| 2026-04-29 06:35 | -32.52719 | -60.82204 | 33002 ft | 477 kts | 138° |
| 2026-04-29 06:35 | -32.57626 | -60.76924 | 33001 ft | 477 kts | 138° |
| 2026-04-29 06:36 | -32.62540 | -60.71627 | 33002 ft | 477 kts | 138° |
| 2026-04-29 06:36 | -32.67442 | -60.66336 | 33001 ft | 477 kts | 138° |
| 2026-04-29 06:37 | -32.72344 | -60.61036 | 33002 ft | 477 kts | 138° |
| 2026-04-29 06:37 | -32.77247 | -60.55728 | 33001 ft | 477 kts | 138° |
| 2026-04-29 06:38 | -32.82146 | -60.50415 | 33002 ft | 477 kts | 138° |
| 2026-04-29 06:38 | -32.87041 | -60.45098 | 33001 ft | 477 kts | 138° |
| 2026-04-29 06:39 | -32.91906 | -60.39805 | 33001 ft | 477 kts | 138° |
| 2026-04-29 06:39 | -32.96801 | -60.34471 | 33002 ft | 477 kts | 138° |
| 2026-04-29 06:40 | -33.01694 | -60.29131 | 33001 ft | 477 kts | 137° |
| 2026-04-29 06:40 | -33.06578 | -60.23793 | 33002 ft | 477 kts | 137° |
| 2026-04-29 06:41 | -33.11464 | -60.18445 | 33002 ft | 477 kts | 137° |
| 2026-04-29 06:41 | -33.16345 | -60.13093 | 33001 ft | 477 kts | 137° |
| 2026-04-29 06:42 | -33.21234 | -60.07723 | 33001 ft | 477 kts | 137° |
| 2026-04-29 06:42 | -33.26082 | -60.02390 | 33002 ft | 477 kts | 137° |
| 2026-04-29 06:43 | -33.30964 | -59.97013 | 33001 ft | 477 kts | 137° |
| 2026-04-29 06:43 | -33.35837 | -59.91635 | 33002 ft | 477 kts | 137° |
| 2026-04-29 06:44 | -33.40712 | -59.86248 | 33003 ft | 477 kts | 137° |
| 2026-04-29 06:44 | -33.45556 | -59.80885 | 32993 ft | 471 kts | 137° |
| 2026-04-29 06:45 | -33.50319 | -59.75603 | 33003 ft | 468 kts | 137° |
| 2026-04-29 06:45 | -33.52721 | -59.72938 | 32504 ft | 474 kts | 137° |
| 2026-04-29 06:45 | -33.55140 | -59.70250 | 31832 ft | 472 kts | 137° |
| 2026-04-29 06:45 | -33.57555 | -59.67565 | 31064 ft | 473 kts | 137° |
| 2026-04-29 06:46 | -33.59967 | -59.64882 | 30272 ft | 473 kts | 137° |
| 2026-04-29 06:46 | -33.62386 | -59.62188 | 29448 ft | 474 kts | 137° |
| 2026-04-29 06:46 | -33.64789 | -59.59510 | 28883 ft | 469 kts | 137° |
| 2026-04-29 06:46 | -33.67176 | -59.56847 | 28279 ft | 464 kts | 137° |
| 2026-04-29 06:47 | -33.69498 | -59.54255 | 27720 ft | 459 kts | 137° |
| 2026-04-29 06:47 | -33.71823 | -59.51657 | 27159 ft | 454 kts | 137° |
| 2026-04-29 06:47 | -33.74119 | -59.49090 | 26612 ft | 448 kts | 137° |
| 2026-04-29 06:47 | -33.76388 | -59.46551 | 26075 ft | 443 kts | 137° |
| 2026-04-29 06:48 | -33.78631 | -59.44040 | 25534 ft | 439 kts | 137° |
| 2026-04-29 06:48 | -33.80852 | -59.41551 | 25003 ft | 434 kts | 137° |
| 2026-04-29 06:48 | -33.83050 | -59.39086 | 24483 ft | 429 kts | 137° |
| 2026-04-29 06:48 | -33.85221 | -59.36650 | 23955 ft | 425 kts | 137° |
| 2026-04-29 06:49 | -33.87380 | -59.34225 | 23429 ft | 421 kts | 137° |
| 2026-04-29 06:49 | -33.89509 | -59.31832 | 22923 ft | 417 kts | 137° |
| 2026-04-29 06:49 | -33.91618 | -59.29462 | 22414 ft | 413 kts | 137° |
| 2026-04-29 06:49 | -33.93707 | -59.27110 | 21893 ft | 409 kts | 137° |
| 2026-04-29 06:50 | -33.95780 | -59.24776 | 21394 ft | 405 kts | 137° |
| 2026-04-29 06:50 | -33.97830 | -59.22466 | 20892 ft | 402 kts | 137° |
| 2026-04-29 06:50 | -33.99841 | -59.20198 | 20383 ft | 399 kts | 137° |
| 2026-04-29 06:50 | -34.01856 | -59.17923 | 19898 ft | 395 kts | 137° |
| 2026-04-29 06:51 | -34.03855 | -59.15666 | 19404 ft | 392 kts | 137° |
| 2026-04-29 06:51 | -34.05837 | -59.13426 | 18904 ft | 389 kts | 137° |
| 2026-04-29 06:51 | -34.07805 | -59.11201 | 18420 ft | 386 kts | 137° |
| 2026-04-29 06:51 | -34.09756 | -59.08994 | 17938 ft | 383 kts | 137° |
| 2026-04-29 06:52 | -34.11688 | -59.06806 | 17446 ft | 380 kts | 137° |
| 2026-04-29 06:52 | -34.13610 | -59.04628 | 16968 ft | 377 kts | 137° |
| 2026-04-29 06:52 | -34.15515 | -59.02469 | 16493 ft | 374 kts | 137° |
| 2026-04-29 06:52 | -34.17407 | -59.00322 | 16009 ft | 372 kts | 137° |
| 2026-04-29 06:53 | -34.19286 | -58.98189 | 15542 ft | 369 kts | 137° |
| 2026-04-29 06:53 | -34.21150 | -58.96071 | 15067 ft | 366 kts | 137° |
| 2026-04-29 06:53 | -34.22998 | -58.93971 | 14603 ft | 364 kts | 137° |
| 2026-04-29 06:53 | -34.24808 | -58.91911 | 14153 ft | 361 kts | 137° |
| 2026-04-29 06:54 | -34.26635 | -58.89832 | 13681 ft | 359 kts | 137° |
| 2026-04-29 06:54 | -34.28444 | -58.87772 | 13236 ft | 356 kts | 137° |
| 2026-04-29 06:54 | -34.30241 | -58.85724 | 12788 ft | 353 kts | 137° |
| 2026-04-29 06:54 | -34.32032 | -58.83682 | 12350 ft | 354 kts | 137° |
| 2026-04-29 06:55 | -34.33831 | -58.81630 | 11877 ft | 356 kts | 137° |
| 2026-04-29 06:55 | -34.35643 | -58.79561 | 11413 ft | 360 kts | 137° |
| 2026-04-29 06:55 | -34.37472 | -58.77473 | 10989 ft | 360 kts | 137° |
| 2026-04-29 06:55 | -34.39256 | -58.75433 | 10882 ft | 346 kts | 137° |
| 2026-04-29 06:56 | -34.40981 | -58.73459 | 10721 ft | 335 kts | 137° |
| 2026-04-29 06:56 | -34.42629 | -58.71573 | 10586 ft | 324 kts | 137° |
| 2026-04-29 06:56 | -34.44242 | -58.69725 | 10450 ft | 314 kts | 137° |
| 2026-04-29 06:56 | -34.45804 | -58.67936 | 10323 ft | 304 kts | 137° |
| 2026-04-29 06:57 | -34.47320 | -58.66197 | 10202 ft | 295 kts | 137° |
| 2026-04-29 06:57 | -34.48791 | -58.64510 | 10086 ft | 286 kts | 137° |
| 2026-04-29 06:57 | -34.50219 | -58.62871 | 9957 ft | 279 kts | 137° |
| 2026-04-29 06:57 | -34.51620 | -58.61264 | 9706 ft | 276 kts | 137° |
| 2026-04-29 06:58 | -34.53010 | -58.59667 | 9442 ft | 274 kts | 137° |
| 2026-04-29 06:58 | -34.54389 | -58.58083 | 9180 ft | 272 kts | 137° |
| 2026-04-29 06:58 | -34.55759 | -58.56508 | 8922 ft | 270 kts | 137° |
| 2026-04-29 06:58 | -34.57116 | -58.54947 | 8678 ft | 268 kts | 137° |
| 2026-04-29 06:59 | -34.58460 | -58.53400 | 8417 ft | 266 kts | 137° |
| 2026-04-29 06:59 | -34.59802 | -58.51855 | 8162 ft | 264 kts | 137° |
| 2026-04-29 06:59 | -34.61127 | -58.50329 | 7915 ft | 262 kts | 137° |
| 2026-04-29 06:59 | -34.62428 | -58.48830 | 7671 ft | 260 kts | 137° |
| 2026-04-29 07:00 | -34.63736 | -58.47321 | 7412 ft | 258 kts | 137° |
| 2026-04-29 07:00 | -34.65037 | -58.45821 | 7176 ft | 257 kts | 137° |
| 2026-04-29 07:00 | -34.66325 | -58.44334 | 6941 ft | 254 kts | 137° |
| 2026-04-29 07:00 | -34.67608 | -58.42853 | 6700 ft | 252 kts | 137° |
| 2026-04-29 07:01 | -34.68874 | -58.41390 | 6438 ft | 251 kts | 137° |
| 2026-04-29 07:01 | -34.70160 | -58.39905 | 6034 ft | 257 kts | 137° |
| 2026-04-29 07:01 | -34.71459 | -58.38402 | 5696 ft | 259 kts | 137° |
| 2026-04-29 07:01 | -34.72767 | -58.36890 | 5373 ft | 260 kts | 137° |
| 2026-04-29 07:02 | -34.74077 | -58.35373 | 5085 ft | 260 kts | 137° |
| 2026-04-29 07:02 | -34.75383 | -58.33861 | 4794 ft | 260 kts | 137° |
| 2026-04-29 07:02 | -34.76673 | -58.32367 | 4554 ft | 258 kts | 137° |
| 2026-04-29 07:02 | -34.77952 | -58.30885 | 4420 ft | 250 kts | 137° |
| 2026-04-29 07:03 | -34.79196 | -58.29442 | 4306 ft | 243 kts | 137° |
| 2026-04-29 07:03 | -34.80400 | -58.28046 | 4228 ft | 234 kts | 137° |
| 2026-04-29 07:03 | -34.81600 | -58.26701 | 3882 ft | 240 kts | 145° |
| 2026-04-29 07:03 | -34.83161 | -58.25999 | 3456 ft | 244 kts | 180° |
| 2026-04-29 07:04 | -34.84725 | -58.26508 | 3461 ft | 228 kts | 213° |
| 2026-04-29 07:04 | -34.85743 | -58.27883 | 3459 ft | 213 kts | 244° |
| 2026-04-29 07:04 | -34.86104 | -58.29548 | 3427 ft | 197 kts | 265° |
| 2026-04-29 07:04 | -34.86141 | -58.31179 | 3195 ft | 187 kts | 270° |
| 2026-04-29 07:05 | -34.86072 | -58.32205 | 3052 ft | 182 kts | 279° |
| 2026-04-29 07:05 | -34.85810 | -58.33704 | 2871 ft | 180 kts | 282° |
| 2026-04-29 07:05 | -34.85532 | -58.35188 | 2696 ft | 180 kts | 282° |
| 2026-04-29 07:05 | -34.85176 | -58.37121 | 2420 ft | 172 kts | 282° |
| 2026-04-29 07:06 | -34.85003 | -58.38069 | 2307 ft | 167 kts | 282° |
| 2026-04-29 07:06 | -34.84685 | -58.39831 | 2003 ft | 156 kts | 281° |
| 2026-04-29 07:06 | -34.84455 | -58.41112 | 1804 ft | 155 kts | 281° |
| 2026-04-29 07:06 | -34.84298 | -58.41984 | 1681 ft | 157 kts | 281° |
| 2026-04-29 07:07 | -34.84066 | -58.43281 | 1483 ft | 156 kts | 281° |
| 2026-04-29 07:07 | -34.83835 | -58.44569 | 1287 ft | 156 kts | 281° |
| 2026-04-29 07:07 | -34.83604 | -58.45858 | 1079 ft | 156 kts | 281° |
| 2026-04-29 07:07 | -34.83373 | -58.47144 | 869 ft | 155 kts | 281° |
| 2026-04-29 07:08 | -34.83144 | -58.48425 | 663 ft | 155 kts | 281° |
| 2026-04-29 07:08 | -34.82915 | -58.49704 | 465 ft | 154 kts | 281° |
| 2026-04-29 07:08 | -34.82700 | -58.50954 | 302 ft | 152 kts | 281° |
| 2026-04-29 07:08 | -34.82474 | -58.52211 | 103 ft | 150 kts | 281° |
| 2026-04-29 07:09 | -34.82269 | -58.53329 | 80 ft | 116 kts | 282° |
| 2026-04-29 07:09 | -34.82135 | -58.54070 | 82 ft | 63 kts | 282° |
| 2026-04-29 07:09 | -34.82068 | -58.54436 | 81 ft | 30 kts | 282° |
| 2026-04-29 07:09 | -34.82035 | -58.54534 | 80 ft | 8 kts | 329° |
| 2026-04-29 07:10 | -34.81985 | -58.54528 | 79 ft | 8 kts | 29° |
| 2026-04-29 07:10 | -34.81932 | -58.54486 | 77 ft | 10 kts | 33° |
| 2026-04-29 07:10 | -34.81871 | -58.54437 | 75 ft | 11 kts | 34° |
| 2026-04-29 07:10 | -34.81811 | -58.54384 | 71 ft | 10 kts | 35° |
| 2026-04-29 07:11 | -34.81762 | -58.54402 | 73 ft | 9 kts | 292° |
| 2026-04-29 07:11 | -34.81751 | -58.54469 | 74 ft | 5 kts | 285° |
| 2026-04-29 07:11 | -34.81742 | -58.54474 | 72 ft | 1 kts | 335° |
| 2026-04-29 07:11 | -34.81731 | -58.54476 | 68 ft | 2 kts | 358° |
| 2026-04-29 07:12 | -34.81719 | -58.54475 | 74 ft | 2 kts | 6° |
| 2026-04-29 07:12 | -34.81703 | -58.54470 | 65 ft | 3 kts | 12° |
| 2026-04-29 07:12 | -34.81681 | -58.54464 | 70 ft | 4 kts | 12° |
| 2026-04-29 07:12 | -34.81650 | -58.54456 | 67 ft | 5 kts | 13° |
| 2026-04-29 07:13 | -34.81624 | -58.54449 | 65 ft | 0 kts | 13° |